Time;durP1;ratioP1;P1;durP2;ratioP2;P2;SDS_P1;SDS_P2;PMS_P1;PMS_P2;Temp;Humidity;BMP_temperature;BMP_pressure;BME280_temperature;BME280_humidity;BME280_pressure;Samples;Min_cycle;Max_cycle;Signal;HPM_P1;HPM_P2
2021/01/03 00:01:27;;;;;;;22.25;13.90;;;;;;;-0.39;88.84;101592.55;1746141;80;21160;-72
2021/01/03 00:03:54;;;;;;;20.62;14.10;;;;;;;-0.37;88.91;101593.20;1643387;80;10000410;-72
2021/01/03 00:06:24;;;;;;;19.70;12.93;;;;;;;-0.37;88.86;101594.51;1758946;80;21160;-72
2021/01/03 00:08:51;;;;;;;18.60;12.47;;;;;;;-0.37;88.84;101597.62;1757054;79;21196;-73
2021/01/03 00:11:20;;;;;;;20.77;13.18;;;;;;;-0.37;88.85;101589.75;1758952;80;21176;-72
2021/01/03 00:13:47;;;;;;;21.00;13.75;;;;;;;-0.35;88.81;101591.25;1766436;80;21145;-72
2021/01/03 00:16:15;;;;;;;20.65;13.18;;;;;;;-0.40;88.76;101594.83;1748444;80;22397;-71
2021/01/03 00:18:42;;;;;;;19.45;12.23;;;;;;;-0.43;88.80;101597.77;1756480;80;21291;-71
2021/01/03 00:21:11;;;;;;;21.05;13.30;;;;;;;-0.47;88.78;101601.70;1757060;80;21212;-72
2021/01/03 00:23:40;;;;;;;21.17;13.30;;;;;;;-0.51;88.78;101605.63;1750438;80;21676;-73
2021/01/03 00:26:09;;;;;;;20.65;14.15;;;;;;;-0.53;88.85;101602.33;1744522;81;21186;-72
2021/01/03 00:28:37;;;;;;;18.48;12.58;;;;;;;-0.53;88.84;101597.08;1754557;81;21630;-72
2021/01/03 00:31:04;;;;;;;18.92;12.68;;;;;;;-0.53;88.88;101593.14;1740882;81;21213;-72
2021/01/03 00:33:32;;;;;;;20.08;13.65;;;;;;;-0.52;88.87;101594.31;1740441;81;21184;-72
2021/01/03 00:36:00;;;;;;;20.90;14.20;;;;;;;-0.51;88.88;101595.13;1735985;81;21641;-72
2021/01/03 00:38:27;;;;;;;22.67;13.93;;;;;;;-0.52;88.85;101589.56;1736905;81;21708;-72
2021/01/03 00:40:55;;;;;;;19.55;12.65;;;;;;;-0.50;88.89;101591.52;1745332;81;21184;-72
2021/01/03 00:43:23;;;;;;;21.12;12.90;;;;;;;-0.45;88.86;101585.31;1740596;81;21374;-71
2021/01/03 00:45:50;;;;;;;21.17;14.30;;;;;;;-0.44;88.83;101591.38;1740825;81;21212;-72
2021/01/03 00:48:21;;;;;;;21.37;13.55;;;;;;;-0.45;88.79;101592.37;1732570;81;21201;-72
2021/01/03 00:50:49;;;;;;;19.23;12.07;;;;;;;-0.47;88.79;101588.58;1747375;81;21577;-72
2021/01/03 00:53:17;;;;;;;19.42;13.22;;;;;;;-0.47;88.83;101580.20;1733654;81;21220;-71
2021/01/03 00:55:44;;;;;;;21.30;12.95;;;;;;;-0.45;88.81;101581.38;1739776;81;21205;-72
2021/01/03 00:58:12;;;;;;;20.75;13.08;;;;;;;-0.44;88.76;101583.02;1733487;81;21839;-71
2021/01/03 01:00:39;;;;;;;18.65;12.55;;;;;;;-0.43;88.69;101583.33;1740429;81;21176;-71
2021/01/03 01:03:07;;;;;;;17.85;12.35;;;;;;;-0.43;88.67;101573.33;1749101;81;21695;-71
2021/01/03 01:05:36;;;;;;;19.45;13.20;;;;;;;-0.44;88.65;101580.88;1746367;81;22287;-71
2021/01/03 01:08:05;;;;;;;19.30;12.80;;;;;;;-0.42;88.66;101581.06;1614337;81;9999969;-71
2021/01/03 01:10:32;;;;;;;20.37;13.95;;;;;;;-0.39;88.64;101575.98;1735285;81;21728;-71
2021/01/03 01:13:01;;;;;;;18.02;12.28;;;;;;;-0.36;88.65;101577.80;1735525;81;21169;-72
2021/01/03 01:15:31;;;;;;;20.23;12.80;;;;;;;-0.33;88.63;101572.70;1749612;81;21158;-72
2021/01/03 01:18:02;;;;;;;22.48;14.00;;;;;;;-0.30;88.68;101575.00;1744436;81;21359;-72
2021/01/03 01:20:33;;;;;;;20.95;13.65;;;;;;;-0.28;88.67;101575.18;1737354;81;21235;-71
2021/01/03 01:23:01;;;;;;;21.65;13.18;;;;;;;-0.25;88.63;101571.42;1741639;81;21216;-70
2021/01/03 01:25:30;;;;;;;19.20;12.85;;;;;;;-0.24;88.63;101567.31;1753966;81;21221;-71
2021/01/03 01:28:00;;;;;;;21.73;13.85;;;;;;;-0.20;88.61;101566.98;1743918;81;21196;-73
2021/01/03 01:30:38;;;;;;;21.11;13.51;;;;;;;-0.18;88.35;101567.66;1709955;79;9999705;-73
2021/01/03 01:33:08;;;;;;;20.02;13.28;;;;;;;-0.18;88.35;101567.66;1689410;83;21743;-73
2021/01/03 01:35:38;;;;;;;19.35;12.25;;;;;;;-0.16;88.58;101573.09;1710293;83;21360;-73
2021/01/03 01:38:07;;;;;;;20.45;13.22;;;;;;;-0.13;88.54;101573.23;1736078;81;22395;-73
2021/01/03 01:40:38;;;;;;;20.52;13.40;;;;;;;-0.13;88.45;101569.30;1737125;81;21201;-74
2021/01/03 01:43:12;;;;;;;19.05;13.35;;;;;;;-0.13;88.38;101574.55;1741426;81;21232;-74
2021/01/03 01:45:43;;;;;;;19.55;12.37;;;;;;;-0.17;88.29;101577.98;1739249;80;21236;-74
2021/01/03 01:48:23;;;;;;;18.37;12.88;;;;;;;-0.25;88.21;101580.11;1748525;81;21181;-73
2021/01/03 01:50:57;;;;;;;18.32;12.58;;;;;;;-0.32;88.11;101579.12;1751521;81;21189;-73
2021/01/03 01:53:47;;;;;;;18.25;12.68;;;;;;;-0.36;88.10;101585.67;1745024;81;21201;-73
2021/01/03 01:56:53;;;;;;;19.25;12.43;;;;;;;-0.38;88.08;101590.25;1733768;81;21193;-73
2021/01/03 01:59:49;;;;;;;19.60;12.43;;;;;;;-0.39;88.03;101593.87;1736502;81;21224;-72
2021/01/03 02:02:25;;;;;;;21.40;13.10;;;;;;;-0.41;87.92;101593.19;1742495;81;21660;-74
2021/01/03 02:05:04;;;;;;;21.37;13.90;;;;;;;-0.42;87.88;101597.30;1743178;81;21196;-73
2021/01/03 02:07:44;;;;;;;20.17;12.13;;;;;;;-0.44;87.93;101601.38;1746260;81;21205;-74
2021/01/03 02:10:30;;;;;;;20.62;13.38;;;;;;;-0.41;88.08;101601.06;1735532;81;21704;-74
2021/01/03 02:13:31;;;;;;;22.10;14.28;;;;;;;-0.32;88.31;101604.55;1745933;81;21412;-73
2021/01/03 02:16:14;;;;;;;21.80;13.88;;;;;;;-0.24;88.57;101610.63;1723028;81;21181;-72
2021/01/03 02:18:43;;;;;;;;;;;;;;;-0.10;88.84;101615.77;1753802;81;21184;-73
2021/01/03 02:21:42;;;;;;;20.20;13.13;;;;;;;0.03;89.12;101610.53;1749111;81;20268;-71
2021/01/03 02:24:44;;;;;;;22.50;14.50;;;;;;;0.14;89.32;101611.05;1746034;81;21585;-72
2021/01/03 02:27:15;;;;;;;;;;;;;;;0.28;89.48;101610.08;1754391;81;21382;-72
2021/01/03 02:29:44;;;;;;;16.75;9.73;;;;;;;0.39;89.64;101606.61;1738030;81;20329;-73
2021/01/03 02:32:12;;;;;;;20.45;13.32;;;;;;;0.48;89.76;101604.81;1738537;81;21161;-73
2021/01/03 02:34:43;;;;;;;19.62;12.90;;;;;;;0.57;89.85;101597.27;1726117;81;21217;-73
2021/01/03 02:37:39;;;;;;;20.37;13.58;;;;;;;0.68;89.93;101598.23;1743156;81;21157;-73
2021/01/03 02:40:18;;;;;;;21.93;14.55;;;;;;;0.79;90.03;101598.40;1746657;80;21189;-73
2021/01/03 02:42:46;;;;;;;21.45;14.03;;;;;;;0.89;90.07;101598.22;1714505;81;21204;-73
2021/01/03 02:45:24;;;;;;;21.20;13.85;;;;;;;0.97;90.08;101603.45;1745143;80;21175;-72
2021/01/03 02:47:57;;;;;;;20.82;14.70;;;;;;;1.05;90.08;101607.36;1742421;80;21167;-73
2021/01/03 02:50:25;;;;;;;23.38;15.28;;;;;;;1.13;90.11;101599.96;1743263;81;21224;-72
2021/01/03 02:52:54;;;;;;;21.48;14.63;;;;;;;1.19;90.08;101611.12;1734512;81;21379;-73
2021/01/03 02:55:23;;;;;;;19.57;13.90;;;;;;;1.25;90.06;101604.34;1734458;81;21184;-72
2021/01/03 02:57:52;;;;;;;21.50;14.43;;;;;;;1.29;90.01;101606.98;1712035;82;21659;-73
2021/01/03 03:00:26;;;;;;;21.55;14.40;;;;;;;1.31;89.98;101608.44;1682012;84;21184;-72
2021/01/03 03:02:54;;;;;;;21.37;14.40;;;;;;;1.34;89.93;101603.33;1740609;80;21649;-72
2021/01/03 03:05:22;;;;;;;19.52;13.72;;;;;;;1.37;89.88;101606.95;1710211;82;21212;-73
2021/01/03 03:07:51;;;;;;;21.27;14.65;;;;;;;1.40;89.86;101610.55;1747238;80;21807;-73
2021/01/03 03:10:19;;;;;;;22.73;14.93;;;;;;;1.43;89.83;101603.64;1677793;83;21236;-73
2021/01/03 03:12:50;;;;;;;22.48;15.08;;;;;;;1.46;89.81;101599.34;1745449;80;21681;-72
2021/01/03 03:15:19;;;;;;;24.55;14.75;;;;;;;1.49;89.76;101599.51;1708746;82;21332;-72
2021/01/03 03:17:46;;;;;;;21.97;14.07;;;;;;;1.51;89.70;101602.77;1739952;81;22086;-72
2021/01/03 03:20:15;;;;;;;21.23;13.50;;;;;;;1.52;89.64;101606.56;1748439;81;21185;-72
2021/01/03 03:22:44;;;;;;;23.83;14.95;;;;;;;1.55;89.62;101606.72;1709989;82;21302;-72
2021/01/03 03:25:12;;;;;;;23.07;15.32;;;;;;;1.54;89.60;101611.64;1684181;83;21213;-73
2021/01/03 03:27:40;;;;;;;20.62;13.35;;;;;;;1.56;89.55;101610.48;1745468;81;21187;-74
2021/01/03 03:30:11;;;;;;;20.55;13.80;;;;;;;1.58;89.53;101607.67;1733913;81;22094;-72
2021/01/03 03:32:39;;;;;;;22.25;15.18;;;;;;;1.60;89.47;101606.52;1747022;80;22250;-73
2021/01/03 03:35:08;;;;;;;19.75;14.28;;;;;;;1.59;89.42;101601.43;1743072;80;21243;-73
2021/01/03 03:37:38;;;;;;;22.20;14.15;;;;;;;1.60;89.40;101608.33;1729455;81;21182;-73
2021/01/03 03:40:07;;;;;;;21.75;13.72;;;;;;;1.58;89.36;101605.88;1709863;81;21126;-72
2021/01/03 03:42:36;;;;;;;21.10;14.35;;;;;;;1.59;89.28;101604.88;1732195;80;22298;-73
2021/01/03 03:45:07;;;;;;;21.68;14.63;;;;;;;1.56;89.23;101613.63;1745526;80;21215;-73
2021/01/03 03:47:35;;;;;;;21.23;14.75;;;;;;;1.59;89.23;101614.09;1739555;81;21141;-73
2021/01/03 03:50:07;;;;;;;22.90;15.20;;;;;;;1.62;89.21;101611.12;1740770;80;21197;-73
2021/01/03 03:52:34;;;;;;;20.95;14.07;;;;;;;1.68;89.19;101608.78;1739259;80;21628;-72
2021/01/03 03:55:03;;;;;;;20.55;13.03;;;;;;;1.72;89.14;101610.91;1743502;80;21226;-72
2021/01/03 03:57:31;;;;;;;22.25;14.13;;;;;;;1.76;89.12;101610.06;1748576;81;21181;-72
2021/01/03 03:59:58;;;;;;;23.83;14.07;;;;;;;1.78;89.08;101610.73;1716487;83;21704;-72
2021/01/03 04:02:26;;;;;;;22.77;14.18;;;;;;;1.80;89.02;101617.44;1704269;83;21208;-72
2021/01/03 04:04:53;;;;;;;20.27;12.88;;;;;;;1.85;89.00;101612.98;1724274;81;21258;-72
2021/01/03 04:07:21;;;;;;;19.02;12.82;;;;;;;1.88;88.88;101625.81;1717051;81;21375;-72
2021/01/03 04:09:48;;;;;;;19.80;12.55;;;;;;;1.88;88.82;101619.23;1717320;83;21194;-73
2021/01/03 04:12:16;;;;;;;21.45;12.93;;;;;;;1.89;88.75;101620.86;1716390;82;21652;-73
2021/01/03 04:14:44;;;;;;;19.45;11.57;;;;;;;1.85;88.65;101618.25;1722753;81;21171;-73
2021/01/03 04:17:12;;;;;;;18.45;11.93;;;;;;;1.83;88.57;101614.96;1715460;83;21173;-72
2021/01/03 04:19:39;;;;;;;18.67;11.30;;;;;;;1.86;88.52;101623.84;1721821;83;21800;-73
2021/01/03 04:22:07;;;;;;;18.75;11.65;;;;;;;1.85;88.49;101621.70;1709906;82;21237;-73
2021/01/03 04:24:35;;;;;;;19.12;11.68;;;;;;;1.84;88.44;101623.17;1715592;81;21709;-73
2021/01/03 04:27:06;;;;;;;19.10;11.57;;;;;;;1.83;88.38;101629.45;1742775;81;21608;-72
2021/01/03 04:29:35;;;;;;;20.48;12.45;;;;;;;1.82;88.33;101633.09;1754749;81;21160;-73
2021/01/03 04:32:09;;;;;;;21.23;12.65;;;;;;;1.83;88.25;101634.22;1738252;82;21664;-73
2021/01/03 04:34:38;;;;;;;20.02;13.03;;;;;;;1.85;88.25;101636.70;1743726;80;21178;-73
2021/01/03 04:37:07;;;;;;;20.80;13.05;;;;;;;1.87;88.19;101636.83;1736959;81;21624;-73
2021/01/03 04:39:35;;;;;;;18.25;11.48;;;;;;;1.92;88.21;101636.33;1744934;81;21616;-73
2021/01/03 04:42:10;;;;;;;18.35;11.33;;;;;;;1.93;88.11;101637.95;1762615;80;21169;-72
2021/01/03 04:44:42;;;;;;;21.17;11.85;;;;;;;1.93;88.00;101638.45;1735004;80;21176;-72
2021/01/03 04:47:25;;;;;;;16.10;9.95;;;;;;;1.90;87.94;101630.39;1738405;81;21198;-73
2021/01/03 04:50:19;;;;;;;17.20;11.53;;;;;;;1.91;87.90;101628.58;1705317;83;21168;-73
2021/01/03 04:53:14;;;;;;;20.05;11.35;;;;;;;1.86;87.83;101630.42;1719466;80;21180;-73
2021/01/03 04:55:50;;;;;;;18.32;11.73;;;;;;;1.85;87.80;101634.88;1749903;80;21716;-74
2021/01/03 04:58:27;;;;;;;22.67;12.55;;;;;;;1.87;87.75;101632.05;1759375;80;21366;-72
2021/01/03 05:01:19;;;;;;;20.08;12.00;;;;;;;1.87;87.72;101636.01;1740883;80;21192;-73
2021/01/03 05:03:52;;;;;;;18.45;10.50;;;;;;;1.87;87.71;101636.83;1743706;81;21196;-73
2021/01/03 05:06:24;;;;;;;17.12;10.58;;;;;;;1.87;87.69;101639.96;1744139;80;21187;-73
2021/01/03 05:08:58;;;;;;;15.13;9.45;;;;;;;1.85;87.63;101638.83;1729347;80;21188;-72
2021/01/03 05:11:34;;;;;;;15.60;9.80;;;;;;;1.87;87.58;101643.91;1736344;81;21418;-73
2021/01/03 05:14:19;;;;;;;14.00;9.05;;;;;;;1.84;87.51;101649.52;1743062;80;21022;-73
2021/01/03 05:16:56;;;;;;;11.20;7.25;;;;;;;1.80;87.47;101645.09;1747184;80;21180;-73
2021/01/03 05:19:23;;;;;;;12.10;8.08;;;;;;;1.76;87.43;101650.89;1743886;81;21223;-73
2021/01/03 05:21:55;;;;;;;12.65;8.13;;;;;;;1.71;87.35;101651.42;1738455;80;21213;-75
2021/01/03 05:24:27;;;;;;;13.10;8.40;;;;;;;1.68;87.30;101657.03;1739797;81;21358;-73
2021/01/03 05:26:56;;;;;;;12.40;7.87;;;;;;;1.63;87.11;101653.57;1746757;80;21902;-73
2021/01/03 05:29:28;;;;;;;13.08;8.03;;;;;;;1.63;87.11;101653.57;1741311;80;21791;-71
2021/01/03 05:32:00;;;;;;;12.33;8.13;;;;;;;1.65;87.42;101663.95;1755838;80;21152;-74
2021/01/03 05:34:35;;;;;;;13.75;8.58;;;;;;;1.68;87.45;101661.45;1767790;80;21121;-73
2021/01/03 05:37:17;;;;;;;12.75;7.75;;;;;;;1.72;87.42;101668.04;1750181;80;21369;-74
2021/01/03 05:39:45;;;;;;;13.53;8.28;;;;;;;1.73;87.43;101665.22;1739087;82;21172;-73
2021/01/03 05:42:21;;;;;;;13.05;8.03;;;;;;;1.74;87.42;101664.72;1740505;80;21204;-71
2021/01/03 05:45:03;;;;;;;11.57;7.08;;;;;;;1.74;87.39;101660.77;1743877;80;21173;-73
2021/01/03 05:47:57;;;;;;;13.20;7.67;;;;;;;1.75;87.36;101662.43;1739254;80;21176;-72
2021/01/03 05:50:35;;;;;;;12.98;7.70;;;;;;;1.75;87.36;101661.11;1740029;81;21369;-72
2021/01/03 05:53:25;;;;;;;13.93;8.68;;;;;;;1.77;87.37;101657.30;1746338;81;21168;-72
2021/01/03 05:55:58;;;;;;;12.90;7.75;;;;;;;1.77;87.34;101659.11;1743344;80;21140;-72
2021/01/03 05:58:33;;;;;;;11.63;6.85;;;;;;;1.75;87.29;101654.03;1745533;81;21204;-73
2021/01/03 06:01:25;;;;;;;15.32;8.93;;;;;;;1.73;87.29;101658.63;1725506;81;21164;-73
2021/01/03 06:04:15;;;;;;;14.75;8.63;;;;;;;1.76;87.34;101664.06;1754167;81;21395;-72
2021/01/03 06:06:54;;;;;;;14.47;8.35;;;;;;;1.77;87.34;101662.56;1719278;81;21204;-73
2021/01/03 06:09:37;;;;;;;13.95;8.18;;;;;;;1.78;87.37;101665.54;1706758;83;21215;-72
2021/01/03 06:12:25;;;;;;;13.68;7.92;;;;;;;1.80;87.31;101664.03;1743164;81;21224;-72
2021/01/03 06:15:03;;;;;;;12.68;7.67;;;;;;;1.79;87.31;101666.36;1750140;80;21216;-73
2021/01/03 06:17:36;;;;;;;14.83;8.90;;;;;;;1.77;87.33;101669.65;1747413;80;21171;-72
2021/01/03 06:20:17;;;;;;;14.43;8.65;;;;;;;1.77;87.35;101667.02;1742177;81;21191;-73
2021/01/03 06:22:52;;;;;;;13.98;8.50;;;;;;;1.79;87.40;101667.17;1729355;81;21169;-73
2021/01/03 06:25:31;;;;;;;16.35;9.38;;;;;;;1.83;87.40;101664.52;1702871;83;21237;-72
2021/01/03 06:28:26;;;;;;;15.32;9.93;;;;;;;1.88;87.42;101663.52;1722512;81;21153;-73
2021/01/03 06:31:08;;;;;;;19.10;10.55;;;;;;;1.90;87.40;101663.33;1713767;83;21429;-72
2021/01/03 06:34:00;;;;;;;19.35;10.70;;;;;;;1.88;87.42;101661.38;1723965;82;21210;-72
2021/01/03 06:36:33;;;;;;;;;;;;;;;1.90;87.43;101662.01;1720975;81;21193;-71
2021/01/03 06:39:21;;;;;;;19.35;10.38;;;;;;;1.95;87.42;101664.14;1722016;81;20297;-73
2021/01/03 06:42:03;;;;;;;20.40;10.90;;;;;;;1.96;87.44;101672.36;1716292;83;21162;-71
2021/01/03 06:44:43;;;;;;;;;;;;;;;2.00;87.48;101667.88;1742544;81;21667;-73
2021/01/03 06:47:42;;;;;;;21.17;10.72;;;;;;;2.04;87.43;101668.36;1742792;80;20406;-73
2021/01/03 06:50:21;;;;;;;19.20;10.38;;;;;;;2.05;87.43;101661.61;1743881;81;21128;-73
2021/01/03 06:53:11;;;;;;;19.62;10.88;;;;;;;2.11;87.43;101664.05;1742400;82;21707;-73
2021/01/03 06:56:04;;;;;;;22.17;10.98;;;;;;;2.13;87.36;101667.82;1745797;81;21150;-72
2021/01/03 06:59:12;;;;;;;17.40;10.30;;;;;;;2.13;87.31;101669.14;1713261;82;21373;-73
2021/01/03 07:01:41;;;;;;;19.52;10.58;;;;;;;2.12;87.28;101660.41;1744777;81;21110;-72
2021/01/03 07:04:24;;;;;;;17.05;9.85;;;;;;;2.15;87.27;101667.16;1745682;80;21165;-72
2021/01/03 07:07:02;;;;;;;19.30;10.17;;;;;;;2.20;87.27;101662.17;1846476;76;22686;-71
2021/01/03 07:09:32;;;;;;;20.70;10.28;;;;;;;2.18;87.26;101665.50;1841236;75;21189;-72
2021/01/03 07:11:59;;;;;;;17.23;9.60;;;;;;;2.15;87.21;101665.34;1851425;76;21861;-73
2021/01/03 07:14:38;;;;;;;19.57;9.45;;;;;;;2.18;87.23;101672.09;1856096;76;21545;-72
2021/01/03 07:17:10;;;;;;;17.85;9.85;;;;;;;2.21;87.23;101671.74;1849295;75;21176;-72
2021/01/03 07:19:45;;;;;;;15.80;9.35;;;;;;;2.24;87.25;101670.08;1849290;76;21546;-72
2021/01/03 07:22:18;;;;;;;15.58;9.35;;;;;;;2.27;87.25;101665.27;1790105;78;21227;-72
2021/01/03 07:24:57;;;;;;;16.02;9.28;;;;;;;2.31;87.20;101671.02;1820368;77;21391;-72
2021/01/03 07:27:35;;;;;;;18.48;9.85;;;;;;;2.36;87.17;101672.61;1808238;77;21146;-73
2021/01/03 07:30:09;;;;;;;15.30;9.35;;;;;;;2.39;87.16;101667.49;1844780;75;21171;-73
2021/01/03 07:33:00;;;;;;;15.80;9.03;;;;;;;2.43;87.14;101672.23;1837962;75;21256;-72
2021/01/03 07:35:38;;;;;;;14.58;9.45;;;;;;;2.41;87.05;101666.33;1837679;75;21148;-74
2021/01/03 07:38:29;;;;;;;13.80;9.08;;;;;;;2.39;86.92;101663.03;1842767;75;21486;-73
2021/01/03 07:41:04;;;;;;;16.60;10.08;;;;;;;2.37;86.92;101661.09;1842322;75;21164;-72
2021/01/03 07:43:58;;;;;;;16.30;10.13;;;;;;;2.32;86.91;101665.55;1842944;75;21153;-73
2021/01/03 07:46:53;;;;;;;20.10;11.07;;;;;;;2.42;87.00;101666.64;1760307;79;22569;-72
2021/01/03 07:49:32;;;;;;;16.42;9.08;;;;;;;2.39;86.98;101663.03;1734477;82;21160;-73
2021/01/03 07:52:18;;;;;;;14.50;9.30;;;;;;;2.40;86.88;101665.98;1755769;79;21445;-72
2021/01/03 07:54:55;;;;;;;15.78;9.50;;;;;;;2.36;86.84;101667.34;1765187;79;21184;-72
2021/01/03 07:57:27;;;;;;;14.83;7.97;;;;;;;2.37;86.87;101658.92;1761046;79;21201;-72
2021/01/03 07:59:56;;;;;;;14.60;9.38;;;;;;;2.32;86.81;101660.28;1769334;80;21558;-73
2021/01/03 08:02:30;;;;;;;12.95;7.37;;;;;;;2.30;86.76;101660.97;1761507;79;21154;-75
2021/01/03 08:05:00;;;;;;;11.45;7.50;;;;;;;2.31;86.83;101667.87;1765181;80;21696;-73
2021/01/03 08:07:29;;;;;;;11.15;6.70;;;;;;;2.28;86.79;101660.31;1771462;79;21700;-73
2021/01/03 08:10:09;;;;;;;13.25;8.05;;;;;;;2.23;86.73;101661.83;1754049;81;21622;-72
2021/01/03 08:12:45;;;;;;;11.22;7.22;;;;;;;2.24;86.78;101664.80;1756377;81;21182;-72
2021/01/03 08:15:25;;;;;;;12.15;8.08;;;;;;;2.28;86.83;101659.50;1753689;79;22027;-73
2021/01/03 08:17:58;;;;;;;12.80;8.00;;;;;;;2.31;86.76;101663.92;1758199;81;21207;-72
2021/01/03 08:20:26;;;;;;;14.30;8.13;;;;;;;2.29;86.61;101661.95;1731253;81;21538;-72
2021/01/03 08:22:54;;;;;;;11.60;8.38;;;;;;;2.28;86.58;101662.14;1751323;79;21183;-73
2021/01/03 08:25:27;;;;;;;9.25;6.42;;;;;;;2.31;86.60;101654.70;1727161;81;21172;-73
2021/01/03 08:28:17;;;;;;;10.90;7.37;;;;;;;2.37;86.52;101662.41;1749604;79;21175;-72
2021/01/03 08:30:45;;;;;;;11.30;6.83;;;;;;;2.35;86.37;101657.80;1755686;81;21231;-73
2021/01/03 08:33:23;;;;;;;10.65;7.17;;;;;;;2.41;86.40;101653.14;1751298;81;21140;-73
2021/01/03 08:35:50;;;;;;;14.25;8.63;;;;;;;2.50;86.31;101655.20;1753381;79;21116;-73
2021/01/03 08:38:29;;;;;;;12.03;8.13;;;;;;;2.57;86.23;101656.16;1745992;81;21738;-74
2021/01/03 08:41:06;;;;;;;11.53;7.78;;;;;;;2.63;86.11;101663.34;1756634;79;21183;-73
2021/01/03 08:43:33;;;;;;;11.90;8.10;;;;;;;2.70;85.97;101658.17;1755334;79;21223;-72
2021/01/03 08:46:05;;;;;;;13.78;8.58;;;;;;;2.70;85.70;101653.74;1731852;81;21203;-74
2021/01/03 08:48:33;;;;;;;11.55;8.48;;;;;;;2.68;85.62;101652.28;1729377;81;21207;-73
2021/01/03 08:51:11;;;;;;;11.38;8.03;;;;;;;2.68;85.61;101654.41;1707384;81;21204;-73
2021/01/03 08:53:39;;;;;;;14.95;8.45;;;;;;;2.71;85.57;101654.56;1747821;80;21196;-73
2021/01/03 08:56:23;;;;;;;13.90;8.70;;;;;;;2.76;85.51;101658.78;1775835;80;21332;-73
2021/01/03 08:58:51;;;;;;;13.68;8.88;;;;;;;2.82;85.35;101654.94;1733872;80;21241;-74
2021/01/03 09:01:33;;;;;;;15.45;10.10;;;;;;;2.85;85.23;101663.00;1744506;80;21115;-74
2021/01/03 09:04:07;;;;;;;12.68;8.15;;;;;;;2.86;85.12;101667.77;1720654;82;21658;-73
2021/01/03 09:06:35;;;;;;;13.13;8.45;;;;;;;2.84;84.87;101673.75;1679421;83;21228;-72
2021/01/03 09:09:10;;;;;;;13.88;8.83;;;;;;;2.81;84.86;101677.55;1712666;82;21408;-74
2021/01/03 09:11:57;;;;;;;14.15;9.00;;;;;;;2.84;84.77;101685.12;1716936;82;21177;-72
2021/01/03 09:14:36;;;;;;;14.80;9.18;;;;;;;2.88;84.69;101682.44;1728171;81;21627;-73
2021/01/03 09:17:09;;;;;;;13.93;9.23;;;;;;;2.97;84.68;101687.16;1734429;82;21627;-73
2021/01/03 09:20:07;;;;;;;14.63;9.78;;;;;;;3.00;84.51;101683.66;1725066;81;21329;-72
2021/01/03 09:22:42;;;;;;;13.68;8.85;;;;;;;3.00;84.42;101679.70;1727536;82;21220;-73
2021/01/03 09:25:35;;;;;;;12.55;8.80;;;;;;;3.02;84.28;101678.19;1719372;81;21254;-74
2021/01/03 09:28:20;;;;;;;14.10;9.23;;;;;;;3.02;84.18;101680.31;1723011;82;21194;-72
2021/01/03 09:30:47;;;;;;;12.23;8.38;;;;;;;3.04;84.02;101677.52;1735400;81;21212;-73
2021/01/03 09:33:26;;;;;;;14.83;9.38;;;;;;;3.01;83.92;101676.05;1779235;80;21128;-73
2021/01/03 09:36:27;;;;;;;14.18;8.83;;;;;;;2.99;83.86;101674.08;1776670;80;21147;-72
2021/01/03 09:39:20;;;;;;;12.47;7.65;;;;;;;3.01;83.86;101662.85;1752554;80;21158;-72
2021/01/03 09:42:31;;;;;;;16.27;10.87;;;;;;;3.11;83.78;101661.78;1830764;76;22693;-74
2021/01/03 09:45:41;;;;;;;16.45;10.65;;;;;;;3.04;83.75;101667.77;1803426;77;21130;-73
2021/01/03 09:48:29;;;;;;;16.90;10.08;;;;;;;3.12;83.77;101660.77;1842366;75;21244;-73
2021/01/03 09:51:07;;;;;;;15.28;9.35;;;;;;;3.20;83.66;101665.48;1848635;75;21669;-73
2021/01/03 09:53:38;;;;;;;14.80;9.78;;;;;;;3.25;83.57;101659.64;1840636;75;21146;-73
2021/01/03 09:56:35;;;;;;;15.30;10.28;;;;;;;3.30;83.52;101655.97;1852773;77;21183;-73
2021/01/03 09:59:18;;;;;;;12.93;8.95;;;;;;;3.33;83.36;101654.29;1853384;76;21070;-72
2021/01/03 10:01:48;;;;;;;16.00;9.93;;;;;;;3.36;83.17;101657.89;1847228;75;21190;-73
2021/01/03 10:04:29;;;;;;;12.37;8.63;;;;;;;3.32;83.07;101648.66;1845152;75;21169;-73
2021/01/03 10:07:19;;;;;;;13.45;9.68;;;;;;;3.38;83.05;101645.30;1850018;76;21115;-72
2021/01/03 10:10:03;;;;;;;14.15;9.30;;;;;;;3.42;82.89;101647.92;1852045;75;21169;-73
2021/01/03 10:12:35;;;;;;;12.37;8.05;;;;;;;3.47;82.84;101642.89;1815887;77;22138;-72
2021/01/03 10:15:17;;;;;;;12.10;8.27;;;;;;;3.55;82.73;101629.27;1818217;77;21701;-73
2021/01/03 10:17:57;;;;;;;12.50;8.45;;;;;;;3.60;82.52;101631.67;1810057;77;21173;-72
2021/01/03 10:20:47;;;;;;;14.73;9.15;;;;;;;3.66;82.31;101629.63;1821719;77;21172;-73
2021/01/03 10:23:37;;;;;;;13.93;9.68;;;;;;;3.71;82.16;101631.19;1829108;76;21186;-72
2021/01/03 10:26:34;;;;;;;12.40;8.90;;;;;;;3.73;81.92;101637.63;1823492;77;21152;-73
2021/01/03 10:29:04;;;;;;;11.12;8.08;;;;;;;3.77;81.75;101637.57;1827083;76;21384;-72
2021/01/03 10:31:45;;;;;;;12.85;9.10;;;;;;;3.75;81.38;101639.56;1804068;78;21180;-74
2021/01/03 10:34:18;;;;;;;12.07;8.38;;;;;;;3.68;81.26;101634.20;1819440;77;21096;-73
2021/01/03 10:36:46;;;;;;;13.13;8.75;;;;;;;3.64;81.12;101638.22;1844150;76;21704;-74
2021/01/03 10:39:15;;;;;;;13.98;9.48;;;;;;;3.55;80.99;101630.58;1848685;75;21173;-74
2021/01/03 10:41:49;;;;;;;10.85;7.90;;;;;;;3.50;81.03;101623.22;1843913;75;21425;-73
2021/01/03 10:44:17;;;;;;;11.35;8.10;;;;;;;3.49;80.99;101619.77;1852034;77;21134;-74
2021/01/03 10:46:47;;;;;;;11.43;7.70;;;;;;;3.52;81.01;101618.08;1857507;75;21065;-74
2021/01/03 10:49:15;;;;;;;12.80;8.68;;;;;;;3.56;80.99;101619.03;1829156;76;21166;-72
2021/01/03 10:51:45;;;;;;;11.38;7.90;;;;;;;3.52;80.88;101619.87;1826304;76;21145;-72
2021/01/03 10:54:20;;;;;;;10.25;6.97;;;;;;;3.50;80.85;101613.47;1839554;76;21195;-74
2021/01/03 10:56:51;;;;;;;9.35;6.70;;;;;;;3.51;80.73;101619.56;1826069;76;21162;-74
2021/01/03 10:59:19;;;;;;;9.08;6.28;;;;;;;3.54;80.66;101620.52;1833542;76;21575;-74
2021/01/03 11:01:47;;;;;;;8.45;6.03;;;;;;;3.58;80.55;101615.69;1823631;78;21586;-73
2021/01/03 11:04:20;;;;;;;8.18;6.03;;;;;;;3.59;80.28;101604.14;1815341;76;21183;-73
2021/01/03 11:06:51;;;;;;;8.70;5.53;;;;;;;3.56;80.18;101600.55;1817638;76;21328;-74
2021/01/03 11:09:27;;;;;;;8.03;5.60;;;;;;;3.56;80.13;101607.15;1826425;76;21488;-74
2021/01/03 11:12:02;;;;;;;9.20;6.08;;;;;;;3.60;80.10;101601.80;1823466;76;21182;-73
2021/01/03 11:14:30;;;;;;;7.42;5.37;;;;;;;3.59;80.00;101600.98;1827415;76;21632;-74
2021/01/03 11:16:58;;;;;;;8.15;5.78;;;;;;;3.59;80.01;101596.22;1815112;76;21172;-74
2021/01/03 11:19:25;;;;;;;8.23;6.33;;;;;;;3.48;80.12;101598.30;1813719;76;22301;-74
2021/01/03 11:21:55;;;;;;;7.47;5.20;;;;;;;3.47;80.28;101597.98;1822828;76;21169;-73
2021/01/03 11:24:25;;;;;;;7.60;5.15;;;;;;;3.51;80.36;101603.72;1827601;76;25494;-73
2021/01/03 11:26:52;;;;;;;7.67;5.30;;;;;;;3.56;80.45;101600.55;1831763;76;21637;-74
2021/01/03 11:29:25;;;;;;;6.42;4.47;;;;;;;3.61;80.46;101592.86;1828837;76;21580;-74
2021/01/03 11:31:57;;;;;;;6.67;4.80;;;;;;;3.56;80.35;101589.47;1820752;76;21414;-74
2021/01/03 11:34:31;;;;;;;6.08;4.22;;;;;;;3.49;80.46;101584.61;1819031;76;21214;-73
2021/01/03 11:37:07;;;;;;;7.25;4.70;;;;;;;3.46;80.52;101597.68;1819259;76;22217;-73
2021/01/03 11:39:35;;;;;;;7.50;5.10;;;;;;;3.37;80.62;101588.22;1833488;76;21557;-72
2021/01/03 11:42:12;;;;;;;7.25;5.17;;;;;;;3.39;80.84;101590.66;1828893;76;21134;-73
2021/01/03 11:44:43;;;;;;;8.33;5.35;;;;;;;3.38;80.90;101592.48;1823452;76;21386;-73
2021/01/03 11:47:14;;;;;;;7.55;5.00;;;;;;;3.40;81.02;101588.35;1820645;76;21162;-74
2021/01/03 11:49:42;;;;;;;7.25;4.97;;;;;;;3.42;81.09;101592.45;1819768;76;21155;-72
2021/01/03 11:52:11;;;;;;;7.85;4.90;;;;;;;3.43;81.12;101587.98;1821575;77;21172;-73
2021/01/03 11:54:39;;;;;;;7.35;5.10;;;;;;;3.48;81.17;101599.62;1825501;76;21142;-75
2021/01/03 11:57:07;;;;;;;7.28;5.42;;;;;;;3.50;81.20;101592.34;1827562;77;21827;-74
2021/01/03 11:59:35;;;;;;;7.30;5.12;;;;;;;3.55;81.20;101596.24;1828790;78;21193;-76